Time;durP1;ratioP1;P1;durP2;ratioP2;P2;SDS_P1;SDS_P2;PMS_P1;PMS_P2;Temp;Humidity;BMP_temperature;BMP_pressure;BME280_temperature;BME280_humidity;BME280_pressure;Samples;Min_cycle;Max_cycle;Signal;HPM_P1;HPM_P2
2022/07/20 00:01:43;;;;;;;11.08;5.83;;;;;;;16.96;60.70;99296.58;1368178;83;21046;-72
2022/07/20 00:03:45;;;;;;;9.23;5.12;;;;;;;16.90;60.83;99293.86;1373801;84;21266;-72
2022/07/20 00:05:46;;;;;;;9.33;5.72;;;;;;;16.91;60.92;99298.73;1370456;84;81346;-73
2022/07/20 00:07:48;;;;;;;15.48;5.87;;;;;;;16.88;61.08;99292.23;1367821;84;21644;-71
2022/07/20 00:12:09;;;;;;;16.80;5.92;;;;;;;16.80;61.22;99285.63;1391909;83;21100;-71
2022/07/20 00:14:10;;;;;;;9.28;5.03;;;;;;;16.76;61.27;99281.48;1394128;83;81041;-72
2022/07/20 00:16:11;;;;;;;13.95;5.58;;;;;;;16.74;61.34;99280.75;1391417;81;21666;-71
2022/07/20 00:18:14;;;;;;;11.33;5.50;;;;;;;16.70;61.35;99277.92;1398855;83;21071;-72
2022/07/20 00:20:15;;;;;;;10.48;5.72;;;;;;;16.68;61.48;99284.69;1369468;83;81849;-72
2022/07/20 00:22:16;;;;;;;9.40;5.50;;;;;;;16.65;61.55;99280.04;1377008;84;21087;-72
2022/07/20 00:24:17;;;;;;;15.43;6.05;;;;;;;16.63;61.56;99280.64;1368628;84;81532;-72
2022/07/20 00:26:18;;;;;;;11.20;6.17;;;;;;;16.61;61.64;99283.87;1371235;84;21154;-72
2022/07/20 00:28:19;;;;;;;;;;;;;;;16.55;61.57;99277.65;1377935;84;21028;-71
2022/07/20 00:30:21;;;;;;;14.70;6.15;;;;;;;16.53;61.78;99282.20;1371771;85;67154;-72
2022/07/20 00:32:22;;;;;;;8.85;6.03;;;;;;;16.46;61.79;99273.33;1375925;84;21740;-71
2022/07/20 00:34:23;;;;;;;12.20;6.47;;;;;;;16.41;61.77;99276.77;1374785;84;81502;-71
2022/07/20 00:36:24;;;;;;;8.78;5.92;;;;;;;16.36;61.79;99280.20;1372854;84;21574;-72
2022/07/20 00:38:25;;;;;;;13.18;6.37;;;;;;;16.34;61.91;99280.80;1373893;84;21062;-72
2022/07/20 00:40:26;;;;;;;13.45;6.15;;;;;;;16.30;61.94;99280.64;1372117;84;80974;-71
2022/07/20 00:42:27;;;;;;;;;;;;;;;16.28;61.98;99275.42;1375098;85;21053;-71
2022/07/20 00:44:28;;;;;;;13.35;5.83;;;;;;;16.27;62.30;99275.50;1373592;84;68308;-72
2022/07/20 00:46:30;;;;;;;;;;;;;;;16.24;62.26;99277.91;1376140;84;21440;-71
2022/07/20 00:48:32;;;;;;;10.13;5.45;;;;;;;16.22;62.55;99282.46;1352222;85;20147;-72
2022/07/20 00:50:33;;;;;;;12.20;5.95;;;;;;;16.20;62.53;99281.73;1368609;83;80854;-71
2022/07/20 00:52:34;;;;;;;10.58;5.60;;;;;;;16.16;62.54;99278.41;1374421;84;21063;-71
2022/07/20 00:54:36;;;;;;;9.55;6.00;;;;;;;16.13;62.57;99274.63;1371614;84;80985;-71
2022/07/20 00:56:37;;;;;;;15.00;6.33;;;;;;;16.12;62.67;99278.23;1376157;83;21570;-71
2022/07/20 00:58:38;;;;;;;10.58;6.33;;;;;;;16.10;62.68;99274.84;1376359;84;21666;-71
2022/07/20 01:00:39;;;;;;;12.18;5.90;;;;;;;16.07;62.71;99280.34;1375718;84;80802;-71
2022/07/20 01:02:42;;;;;;;10.00;6.25;;;;;;;16.06;62.74;99279.98;1376087;83;21075;-71
2022/07/20 01:04:43;;;;;;;9.43;5.97;;;;;;;16.04;62.80;99278.38;1373284;83;80958;-72
2022/07/20 01:06:44;;;;;;;7.47;5.62;;;;;;;16.01;62.94;99279.43;1373743;84;21531;-72
2022/07/20 01:08:48;;;;;;;12.35;5.67;;;;;;;15.98;62.99;99279.64;1376440;84;21069;-71
2022/07/20 01:10:49;;;;;;;11.68;6.83;;;;;;;15.97;63.05;99275.27;1371889;84;81624;-72
2022/07/20 01:12:50;;;;;;;15.43;6.62;;;;;;;15.95;63.11;99274.50;1373057;84;21035;-71
2022/07/20 01:14:55;;;;;;;7.67;5.90;;;;;;;15.91;63.23;99273.87;1347644;85;81013;-71
2022/07/20 01:16:56;;;;;;;15.70;5.85;;;;;;;15.86;63.32;99273.80;1360738;85;21401;-71
2022/07/20 01:18:58;;;;;;;9.20;5.83;;;;;;;15.80;63.36;99275.89;1395997;82;81825;-71
2022/07/20 01:21:01;;;;;;;8.03;5.25;;;;;;;15.77;63.37;99274.73;1395574;82;21028;-72
2022/07/20 01:23:02;;;;;;;7.92;5.50;;;;;;;15.71;63.39;99267.14;1396671;82;21059;-71
2022/07/20 01:25:03;;;;;;;;;;;;;;;15.74;63.42;99276.73;1396760;83;80822;-71
2022/07/20 01:27:05;;;;;;;8.78;6.10;;;;;;;15.72;63.71;99270.67;1396203;82;20124;-70
2022/07/20 01:29:08;;;;;;;12.33;6.25;;;;;;;15.71;63.58;99270.29;1370914;84;81128;-72
2022/07/20 01:31:09;;;;;;;13.80;5.67;;;;;;;15.68;63.63;99270.01;1377263;84;21089;-71
2022/07/20 01:33:10;;;;;;;12.45;6.22;;;;;;;15.67;63.63;99272.28;1371768;84;21039;-71
2022/07/20 01:35:11;;;;;;;;;;;;;;;15.65;63.66;99274.20;1377096;84;81860;-71
2022/07/20 01:37:12;;;;;;;11.90;6.00;;;;;;;15.63;63.99;99277.42;1373375;83;20229;-70
2022/07/20 01:39:14;;;;;;;13.58;5.75;;;;;;;15.58;63.90;99279.54;1369135;84;81765;-72
2022/07/20 01:41:15;;;;;;;13.98;6.20;;;;;;;15.55;63.98;99277.05;1375322;84;21598;-71
2022/07/20 01:43:17;;;;;;;9.23;5.30;;;;;;;15.50;64.36;99283.52;1372813;84;21016;-71
2022/07/20 01:45:18;;;;;;;14.50;5.62;;;;;;;15.50;64.36;99283.52;1369994;84;81054;-72
2022/07/20 01:47:19;;;;;;;7.15;5.37;;;;;;;15.50;64.12;99284.84;1375495;83;21099;-72
2022/07/20 01:49:20;;;;;;;;;;;;;;;15.48;64.17;99286.76;1376224;83;81550;-71
2022/07/20 01:51:21;;;;;;;17.92;6.58;;;;;;;15.45;64.34;99286.96;1371514;84;20147;-73
2022/07/20 01:53:22;;;;;;;;;;;;;;;15.45;64.27;99286.09;1374262;83;21027;-71
2022/07/20 01:55:23;;;;;;;17.85;6.67;;;;;;;15.42;64.49;99284.47;1370677;84;67175;-71
2022/07/20 01:57:23;;;;;;;;;;;;;;;15.42;64.43;99280.98;1375429;84;21258;-72
2022/07/20 01:59:25;;;;;;;23.92;6.35;;;;;;;15.40;64.62;99277.09;1370467;84;67106;-71
2022/07/20 02:01:26;;;;;;;22.07;6.17;;;;;;;15.38;64.54;99279.02;1374721;84;21087;-71
2022/07/20 02:03:27;;;;;;;21.10;6.62;;;;;;;15.37;64.55;99283.94;1374474;84;21030;-72
2022/07/20 02:05:28;;;;;;;;;;;;;;;15.35;64.56;99282.32;1374968;84;82374;-70
2022/07/20 02:07:29;;;;;;;17.12;5.35;;;;;;;15.34;64.83;99282.81;1373257;84;20599;-72
2022/07/20 02:09:30;;;;;;;28.40;5.78;;;;;;;15.31;64.77;99282.52;1371408;84;80936;-71
2022/07/20 02:11:31;;;;;;;14.78;5.92;;;;;;;15.30;64.79;99287.45;1376925;84;21011;-71
2022/07/20 02:13:35;;;;;;;8.30;5.72;;;;;;;15.28;64.75;99283.18;1372725;84;21060;-71
2022/07/20 02:17:55;;;;;;;17.52;5.75;;;;;;;15.24;64.91;99278.52;1374276;84;21072;-72
2022/07/20 02:19:57;;;;;;;12.43;5.55;;;;;;;15.23;64.92;99282.60;1370037;84;81021;-71
2022/07/20 02:21:58;;;;;;;9.68;5.35;;;;;;;15.20;64.96;99280.15;1372432;84;21028;-70
2022/07/20 02:23:59;;;;;;;11.12;5.70;;;;;;;15.16;65.18;99276.84;1370510;83;80905;-71
2022/07/20 02:26:00;;;;;;;17.37;5.37;;;;;;;15.18;65.05;99279.41;1372965;83;21083;-71
2022/07/20 02:28:01;;;;;;;;;;;;;;;15.18;65.11;99280.73;1375607;84;21030;-71
2022/07/20 02:30:03;;;;;;;7.37;5.70;;;;;;;15.15;65.36;99281.29;1372491;84;67145;-71
2022/07/20 02:32:04;;;;;;;8.78;5.70;;;;;;;15.14;65.22;99280.91;1373576;84;21714;-71
2022/07/20 02:34:05;;;;;;;12.13;5.67;;;;;;;15.12;65.28;99277.50;1373488;84;81032;-70
2022/07/20 02:36:07;;;;;;;;;;;;;;;15.11;65.34;99279.77;1375880;83;21020;-71
2022/07/20 02:38:08;;;;;;;13.13;6.30;;;;;;;15.10;65.61;99276.73;1371828;83;20426;-72
2022/07/20 02:40:09;;;;;;;5.75;4.70;;;;;;;15.08;65.52;99279.13;1371282;84;81007;-71
2022/07/20 02:42:10;;;;;;;10.08;5.53;;;;;;;15.07;65.54;99275.59;1369582;84;21614;-70
2022/07/20 02:44:11;;;;;;;10.20;5.42;;;;;;;15.07;65.55;99275.59;1371083;84;81257;-71
2022/07/20 02:46:12;;;;;;;16.45;5.30;;;;;;;15.05;65.51;99277.52;1375408;84;21391;-73
2022/07/20 02:48:13;;;;;;;17.00;6.50;;;;;;;15.04;65.56;99274.95;1376367;84;21071;-71
2022/07/20 02:50:15;;;;;;;16.82;5.50;;;;;;;14.97;65.63;99262.05;1371752;84;81013;-72
2022/07/20 02:52:18;;;;;;;11.22;5.00;;;;;;;14.97;65.63;99262.05;1374972;84;22003;-71
2022/07/20 02:54:19;;;;;;;10.45;5.10;;;;;;;15.01;65.68;99277.78;1369319;84;81060;-71
2022/07/20 02:56:19;;;;;;;;;;;;;;;14.99;65.69;99279.20;1377689;84;21094;-70
2022/07/20 02:58:20;;;;;;;21.45;7.40;;;;;;;14.98;65.88;99281.47;1373893;84;20143;-71
2022/07/20 03:00:22;;;;;;;;;;;;;;;14.95;65.81;99276.36;1377745;84;80906;-71
2022/07/20 03:02:23;;;;;;;7.33;5.10;;;;;;;14.95;66.03;99273.70;1376957;83;20147;-71
2022/07/20 03:04:23;;;;;;;;;;;;;;;14.93;65.90;99270.30;1374180;84;80823;-73
2022/07/20 03:06:24;;;;;;;7.17;5.12;;;;;;;14.91;66.09;99270.86;1374517;84;20155;-72
2022/07/20 03:08:26;;;;;;;7.75;4.80;;;;;;;14.89;65.94;99272.28;1375228;84;21122;-71
2022/07/20 03:10:27;;;;;;;15.08;5.12;;;;;;;14.88;66.00;99282.51;1372988;84;80828;-71
2022/07/20 03:12:28;;;;;;;28.55;5.00;;;;;;;14.87;66.07;99286.59;1370265;84;21035;-71
2022/07/20 03:14:29;;;;;;;11.60;4.92;;;;;;;14.85;66.09;99284.52;1367556;84;81933;-71
2022/07/20 03:16:30;;;;;;;;;;;;;;;14.83;66.16;99284.61;1371802;84;21094;-69
2022/07/20 03:18:31;;;;;;;8.10;5.35;;;;;;;14.81;66.38;99287.36;1369721;84;20219;-71
2022/07/20 03:20:34;;;;;;;14.90;5.47;;;;;;;14.83;66.48;99285.94;1364132;84;81582;-70
2022/07/20 03:22:35;;;;;;;8.53;5.47;;;;;;;14.83;66.48;99285.94;1371777;84;21111;-71
2022/07/20 03:24:37;;;;;;;;;;;;;;;14.82;66.36;99289.53;1371965;84;80795;-71
2022/07/20 03:26:38;;;;;;;9.95;4.67;;;;;;;14.82;66.48;99292.19;1372877;84;20128;-71
2022/07/20 03:28:40;;;;;;;11.35;5.33;;;;;;;14.80;66.42;99290.95;1369707;84;21877;-70
2022/07/20 03:30:42;;;;;;;17.17;5.55;;;;;;;14.80;66.45;99289.63;1364654;85;81021;-70
2022/07/20 03:32:44;;;;;;;14.38;5.58;;;;;;;14.83;66.48;99287.72;1367956;84;21569;-71
2022/07/20 03:34:44;;;;;;;6.58;4.90;;;;;;;14.85;66.54;99293.80;1373781;84;81576;-70
2022/07/20 03:36:45;;;;;;;14.95;5.28;;;;;;;14.85;66.57;99297.30;1369351;84;21047;-71
2022/07/20 03:38:47;;;;;;;5.87;4.80;;;;;;;14.85;66.70;99297.78;1366620;83;21121;-70
2022/07/20 03:40:48;;;;;;;13.60;6.15;;;;;;;14.87;66.79;99299.86;1365417;83;81293;-71
2022/07/20 03:42:48;;;;;;;;;;;;;;;14.89;66.85;99300.63;1349484;86;21622;-71
2022/07/20 03:44:49;;;;;;;9.65;4.87;;;;;;;14.91;67.07;99298.72;1372346;84;68391;-71
2022/07/20 03:46:50;;;;;;;;;;;;;;;14.93;67.03;99303.48;1375804;84;21044;-71
2022/07/20 03:48:51;;;;;;;5.75;5.00;;;;;;;14.94;67.23;99295.91;1370736;84;20760;-71
2022/07/20 03:50:52;;;;;;;;;;;;;;;14.97;67.16;99296.55;1374103;84;81411;-71
2022/07/20 03:52:55;;;;;;;10.93;5.42;;;;;;;15.01;67.23;99298.56;1376185;84;20166;-71
2022/07/20 03:54:56;;;;;;;6.15;4.90;;;;;;;15.05;67.15;99300.53;1365035;84;81682;-71
2022/07/20 03:56:57;;;;;;;;;;;;;;;15.09;67.16;99305.58;1371897;84;21053;-71
2022/07/20 03:58:58;;;;;;;7.53;4.75;;;;;;;15.14;67.34;99306.13;1364971;83;68525;-71
2022/07/20 04:00:58;;;;;;;;;;;;;;;15.17;67.22;99305.57;1371008;84;21352;-70
2022/07/20 04:02:59;;;;;;;17.67;5.10;;;;;;;15.22;67.34;99312.30;1357354;85;20451;-70
2022/07/20 04:05:00;;;;;;;;;;;;;;;15.27;67.12;99310.67;1374024;83;82088;-70
2022/07/20 04:07:01;;;;;;;11.15;5.75;;;;;;;15.33;67.21;99311.64;1371694;84;20183;-71
2022/07/20 04:09:02;;;;;;;;;;;;;;;15.39;67.09;99316.55;1367456;84;81315;-71
2022/07/20 04:11:03;;;;;;;;;;;;;;;15.45;67.16;99311.33;1376423;84;20144;-71
2022/07/20 04:13:05;;;;;;;12.10;5.55;;;;;;;15.49;67.19;99312.84;1368785;84;20481;-71
2022/07/20 04:15:07;;;;;;;10.72;5.45;;;;;;;15.56;67.06;99315.97;1367208;84;81845;-70
2022/07/20 04:17:08;;;;;;;11.97;4.90;;;;;;;15.61;66.99;99314.72;1368689;83;21371;-71
2022/07/20 04:19:09;;;;;;;17.70;5.62;;;;;;;15.67;66.87;99316.13;1369956;84;82458;-71
2022/07/20 04:21:11;;;;;;;10.32;4.83;;;;;;;15.73;66.82;99314.87;1369854;84;21063;-72
2022/07/20 04:23:12;;;;;;;;;;;;;;;15.81;66.72;99316.14;1370803;84;21109;-71
2022/07/20 04:25:14;;;;;;;12.18;5.33;;;;;;;15.88;66.80;99318.39;1370948;84;67275;-71
2022/07/20 04:27:15;;;;;;;17.07;5.87;;;;;;;15.94;66.64;99313.53;1368985;84;21541;-71
2022/07/20 04:29:16;;;;;;;23.67;5.30;;;;;;;16.01;66.60;99316.66;1368635;84;81449;-70
2022/07/20 04:31:16;;;;;;;;;;;;;;;16.09;66.58;99319.66;1367405;85;21578;-69
2022/07/20 04:33:20;;;;;;;28.15;5.75;;;;;;;16.15;66.62;99320.58;1370238;84;20150;-70
2022/07/20 04:35:22;;;;;;;17.62;5.42;;;;;;;16.22;66.51;99317.53;1365243;84;80764;-72
2022/07/20 04:37:23;;;;;;;20.65;6.40;;;;;;;16.28;66.44;99321.09;1367757;84;21083;-70
2022/07/20 04:39:24;;;;;;;14.40;5.83;;;;;;;16.35;66.37;99325.05;1369700;84;80874;-71
2022/07/20 04:41:25;;;;;;;;;;;;;;;16.41;66.37;99326.47;1371619;83;21055;-72
2022/07/20 04:43:26;;;;;;;28.95;5.58;;;;;;;16.47;66.42;99330.04;1366692;84;20204;-71
2022/07/20 04:45:27;;;;;;;30.43;7.85;;;;;;;16.51;66.36;99328.39;1368052;83;81028;-70
2022/07/20 04:47:28;;;;;;;;;;;;;;;16.59;66.34;99324.38;1368463;84;21752;-70
2022/07/20 04:49:29;;;;;;;15.80;6.20;;;;;;;16.68;66.42;99334.38;1372919;84;67132;-70
2022/07/20 04:51:30;;;;;;;40.33;6.20;;;;;;;16.72;66.34;99327.05;1369052;83;21043;-71
2022/07/20 04:53:31;;;;;;;24.47;6.87;;;;;;;16.80;66.27;99332.22;1366094;83;21111;-70
2022/07/20 04:55:32;;;;;;;16.48;6.42;;;;;;;16.87;66.22;99333.98;1362485;84;81764;-72
2022/07/20 04:57:36;;;;;;;40.90;7.35;;;;;;;16.96;66.15;99335.19;1371335;84;21094;-70
2022/07/20 04:59:37;;;;;;;31.30;6.65;;;;;;;17.04;66.17;99340.00;1363567;85;81003;-72
2022/07/20 05:01:39;;;;;;;14.47;6.85;;;;;;;17.07;66.16;99330.00;1366349;84;21047;-72
2022/07/20 05:03:40;;;;;;;27.85;7.20;;;;;;;17.18;66.14;99343.41;1371290;84;21422;-71
2022/07/20 05:05:41;;;;;;;26.90;6.67;;;;;;;17.25;66.08;99340.30;1364121;83;82234;-70
2022/07/20 05:07:41;;;;;;;;;;;;;;;17.33;66.12;99333.95;1371126;84;21618;-71
2022/07/20 05:09:42;;;;;;;21.10;6.47;;;;;;;17.39;66.21;99340.20;1367402;84;67371;-71
2022/07/20 05:11:43;;;;;;;;;;;;;;;17.47;66.11;99338.31;1345109;86;21674;-71
2022/07/20 05:13:44;;;;;;;37.93;7.78;;;;;;;17.55;66.21;99337.77;1366775;84;20236;-71
2022/07/20 05:15:45;;;;;;;;;;;;;;;17.62;66.16;99331.03;1365403;84;81469;-71
2022/07/20 05:17:46;;;;;;;13.98;6.78;;;;;;;17.71;66.10;99333.05;1369402;84;20170;-70
2022/07/20 05:19:47;;;;;;;;;;;;;;;17.76;66.03;99330.87;1382724;84;80990;-70
2022/07/20 05:21:48;;;;;;;14.90;6.80;;;;;;;17.86;66.16;99333.27;1379182;84;20285;-71
2022/07/20 05:23:50;;;;;;;11.75;6.30;;;;;;;17.94;66.02;99327.88;1380884;84;21084;-71
2022/07/20 05:25:51;;;;;;;25.43;7.10;;;;;;;18.03;65.97;99332.55;1382921;84;81569;-70
2022/07/20 05:27:53;;;;;;;30.97;7.15;;;;;;;18.11;65.90;99330.63;1378335;84;21037;-71
2022/07/20 05:29:53;;;;;;;9.80;6.22;;;;;;;18.20;65.81;99333.47;1363022;85;81558;-72
2022/07/20 05:31:54;;;;;;;23.92;7.47;;;;;;;18.30;65.76;99335.45;1384675;83;21132;-71
2022/07/20 05:33:55;;;;;;;;;;;;;;;18.38;65.67;99331.73;1379608;84;81098;-69
2022/07/20 05:35:56;;;;;;;22.67;6.87;;;;;;;18.48;65.71;99335.40;1362444;85;20468;-70
2022/07/20 05:37:57;;;;;;;23.05;6.55;;;;;;;18.55;65.59;99331.33;1381067;84;21091;-71
2022/07/20 05:39:58;;;;;;;16.73;6.53;;;;;;;18.64;65.53;99333.77;1378679;84;80868;-71
2022/07/20 05:42:00;;;;;;;17.90;7.25;;;;;;;18.72;65.45;99330.53;1382778;83;21517;-71
2022/07/20 05:44:01;;;;;;;11.12;6.20;;;;;;;18.83;65.43;99338.56;1363051;84;81276;-71
2022/07/20 05:46:03;;;;;;;17.52;6.40;;;;;;;18.94;65.34;99336.44;1382196;84;21588;-71
2022/07/20 05:48:05;;;;;;;31.20;6.47;;;;;;;19.03;65.35;99339.70;1381687;84;21556;-71
2022/07/20 05:50:07;;;;;;;27.80;6.65;;;;;;;19.10;65.33;99329.40;1381685;84;81882;-70
2022/07/20 05:52:08;;;;;;;24.05;6.12;;;;;;;19.20;65.20;99338.87;1381737;84;21508;-71
2022/07/20 05:54:09;;;;;;;14.60;7.05;;;;;;;19.30;65.10;99341.67;1365323;83;81874;-71
2022/07/20 05:56:10;;;;;;;18.15;7.20;;;;;;;19.38;65.14;99340.59;1380268;84;21183;-71
2022/07/20 05:58:12;;;;;;;15.35;7.15;;;;;;;19.47;65.14;99339.87;1380287;84;21116;-71
2022/07/20 06:00:13;;;;;;;12.55;6.60;;;;;;;19.56;65.06;99340.48;1381836;83;80938;-72
2022/07/20 06:02:14;;;;;;;23.85;7.28;;;;;;;19.66;65.03;99342.39;1367205;85;21108;-72
2022/07/20 06:04:15;;;;;;;31.80;7.90;;;;;;;19.75;64.94;99343.00;1381275;84;81883;-71
2022/07/20 06:06:16;;;;;;;35.13;7.85;;;;;;;19.86;64.89;99346.19;1382234;84;21029;-72
2022/07/20 06:08:18;;;;;;;24.07;7.87;;;;;;;19.93;64.82;99345.20;1382843;83;21048;-71
2022/07/20 06:10:19;;;;;;;18.27;7.87;;;;;;;20.02;64.78;99352.46;1379759;84;81736;-70
2022/07/20 06:12:20;;;;;;;15.43;7.22;;;;;;;20.12;64.75;99352.09;1383328;84;21112;-71
2022/07/20 06:14:21;;;;;;;28.80;9.38;;;;;;;20.23;64.67;99352.55;1379781;84;80946;-71
2022/07/20 06:16:21;;;;;;;24.82;8.50;;;;;;;20.32;64.58;99350.42;1379141;84;21020;-69
2022/07/20 06:18:23;;;;;;;20.90;9.18;;;;;;;20.39;64.55;99355.66;1379722;83;21608;-70
2022/07/20 06:20:24;;;;;;;18.15;9.50;;;;;;;20.50;64.36;99361.43;1375905;84;81767;-71
2022/07/20 06:22:25;;;;;;;21.77;9.68;;;;;;;20.59;64.23;99357.16;1375818;84;21009;-71
2022/07/20 06:24:26;;;;;;;21.50;9.65;;;;;;;20.69;64.12;99366.63;1375912;84;81016;-72
2022/07/20 06:26:27;;;;;;;26.45;9.73;;;;;;;20.78;64.15;99363.16;1377687;84;21056;-70
2022/07/20 06:28:28;;;;;;;12.85;8.48;;;;;;;20.87;64.10;99365.06;1374253;84;21077;-70
2022/07/20 06:30:30;;;;;;;16.80;8.55;;;;;;;20.97;63.92;99365.12;1375693;84;81612;-71
2022/07/20 06:32:32;;;;;;;17.45;9.10;;;;;;;21.05;63.84;99359.13;1376670;83;21060;-71
2022/07/20 06:34:36;;;;;;;17.17;7.30;;;;;;;21.15;63.71;99361.36;1361182;85;81732;-72
2022/07/20 06:36:37;;;;;;;12.40;7.58;;;;;;;21.23;63.55;99362.05;1377570;83;21116;-70
2022/07/20 06:38:38;;;;;;;23.22;7.62;;;;;;;21.33;63.43;99358.08;1379178;84;21096;-70
2022/07/20 06:40:39;;;;;;;29.95;7.75;;;;;;;21.45;63.39;99357.00;1354750;85;80957;-72
2022/07/20 06:42:40;;;;;;;30.70;6.95;;;;;;;21.57;63.08;99362.66;1361511;85;21024;-71
2022/07/20 06:44:42;;;;;;;12.68;7.12;;;;;;;21.67;62.90;99358.67;1359573;85;81086;-71
2022/07/20 06:46:43;;;;;;;12.30;7.10;;;;;;;21.76;62.49;99362.36;1360156;85;21056;-72
2022/07/20 06:48:44;;;;;;;11.75;7.05;;;;;;;21.87;62.42;99363.59;1373969;84;21100;-70
2022/07/20 06:50:46;;;;;;;20.80;7.00;;;;;;;22.00;62.31;99370.55;1375715;84;81983;-71
2022/07/20 06:52:47;;;;;;;23.05;6.95;;;;;;;22.10;62.19;99362.04;1376389;84;21611;-71
2022/07/20 06:54:48;;;;;;;10.70;6.33;;;;;;;22.20;62.04;99358.86;1375496;84;80948;-71
2022/07/20 06:56:49;;;;;;;13.90;6.10;;;;;;;22.31;61.97;99358.39;1378984;84;21076;-71
2022/07/20 06:58:50;;;;;;;22.40;6.37;;;;;;;22.41;61.72;99360.61;1359936;85;21065;-71
2022/07/20 07:00:51;;;;;;;26.62;7.00;;;;;;;22.50;61.66;99364.28;1359565;84;80815;-71
2022/07/20 07:02:52;;;;;;;23.65;6.70;;;;;;;22.57;61.45;99363.59;1360056;85;21397;-70
2022/07/20 07:04:53;;;;;;;24.87;6.90;;;;;;;22.70;61.50;99357.08;1374725;84;81904;-71
2022/07/20 07:06:54;;;;;;;9.95;6.78;;;;;;;22.82;61.40;99361.79;1376554;84;21009;-70
2022/07/20 07:08:56;;;;;;;11.15;5.95;;;;;;;22.89;61.14;99358.91;1375377;84;80880;-70
2022/07/20 07:10:57;;;;;;;22.50;6.80;;;;;;;22.96;61.03;99357.33;1375916;84;21596;-71
2022/07/20 07:12:58;;;;;;;27.25;6.08;;;;;;;23.03;60.94;99354.92;1361720;85;21057;-72
2022/07/20 07:15:00;;;;;;;14.60;6.30;;;;;;;23.13;60.67;99359.80;1374895;84;81617;-71
2022/07/20 07:17:02;;;;;;;14.53;6.35;;;;;;;23.21;60.46;99354.54;1359135;85;21096;-71
2022/07/20 07:19:03;;;;;;;14.30;6.17;;;;;;;23.29;60.26;99351.97;1359744;85;82431;-70
2022/07/20 07:21:05;;;;;;;29.52;5.72;;;;;;;23.41;60.32;99350.44;1364934;85;20986;-70
2022/07/20 07:23:06;;;;;;;13.35;6.40;;;;;;;23.50;60.21;99351.41;1383797;84;21084;-71
2022/07/20 07:25:08;;;;;;;12.15;5.65;;;;;;;23.67;59.84;99349.77;1377876;84;82008;-71
2022/07/20 07:27:09;;;;;;;14.13;5.47;;;;;;;23.81;59.75;99349.26;1380476;84;21080;-70
2022/07/20 07:29:10;;;;;;;19.90;6.08;;;;;;;23.91;59.64;99355.48;1377592;83;81108;-70
2022/07/20 07:31:12;;;;;;;41.88;6.62;;;;;;;23.98;59.70;99351.66;1380743;84;21045;-71
2022/07/20 07:33:13;;;;;;;31.80;7.28;;;;;;;24.03;59.58;99348.53;1381990;83;21516;-71
2022/07/20 07:35:14;;;;;;;12.68;6.05;;;;;;;24.11;59.50;99351.32;1368656;85;82057;-70
2022/07/20 07:37:15;;;;;;;18.65;5.80;;;;;;;24.21;59.42;99356.13;1381370;84;21053;-70
2022/07/20 07:39:16;;;;;;;19.70;5.53;;;;;;;24.29;59.23;99354.86;1381297;84;81903;-71
2022/07/20 07:41:17;;;;;;;23.70;5.58;;;;;;;24.42;58.96;99349.59;1381311;84;21053;-70
2022/07/20 07:43:18;;;;;;;14.63;5.80;;;;;;;24.52;58.53;99354.42;1379282;84;21519;-71
2022/07/20 07:45:19;;;;;;;24.80;6.00;;;;;;;24.57;58.56;99360.17;1380780;84;81061;-72
2022/07/20 07:47:20;;;;;;;36.58;6.25;;;;;;;24.63;58.56;99363.64;1379596;84;21052;-71
2022/07/20 07:49:21;;;;;;;13.38;5.53;;;;;;;24.77;58.50;99358.68;1383152;84;82422;-71
2022/07/20 07:51:22;;;;;;;16.37;4.95;;;;;;;24.86;58.17;99360.45;1383528;84;21069;-72
2022/07/20 07:53:23;;;;;;;17.27;6.55;;;;;;;24.95;57.86;99367.61;1386068;84;21508;-72
2022/07/20 07:55:24;;;;;;;10.15;4.80;;;;;;;25.08;57.78;99367.18;1382182;84;80831;-71
2022/07/20 07:57:26;;;;;;;17.32;4.92;;;;;;;25.20;57.55;99360.17;1381917;84;21041;-72
2022/07/20 07:59:28;;;;;;;16.15;5.35;;;;;;;25.22;57.13;99364.41;1380556;83;80909;-72
2022/07/20 08:01:30;;;;;;;13.50;4.70;;;;;;;25.28;56.97;99361.57;1386051;84;21001;-72
2022/07/20 08:03:31;;;;;;;19.32;4.70;;;;;;;25.37;56.69;99353.08;1368152;85;21072;-72
2022/07/20 08:05:32;;;;;;;13.18;5.20;;;;;;;25.46;56.76;99360.19;1366276;84;80826;-72
2022/07/20 08:07:45;;;;;;;18.55;5.40;;;;;;;25.48;56.55;99350.09;1364502;85;21181;-72
2022/07/20 08:09:42;;;;;;;17.85;5.53;;;;;;;25.54;56.49;99356.18;1345496;86;81736;-73
2022/07/20 08:11:43;;;;;;;13.15;4.53;;;;;;;25.61;56.43;99363.13;1382659;84;21096;-73
2022/07/20 08:13:44;;;;;;;20.40;5.87;;;;;;;25.71;56.10;99358.95;1381620;84;21009;-70
2022/07/20 08:15:45;;;;;;;20.25;5.17;;;;;;;25.87;56.28;99357.67;1382461;84;81735;-71
2022/07/20 08:17:47;;;;;;;12.35;4.83;;;;;;;26.02;55.94;99355.22;1382732;82;21092;-71
2022/07/20 08:19:48;;;;;;;15.98;4.80;;;;;;;26.13;55.81;99354.08;1360425;84;81398;-71
2022/07/20 08:21:49;;;;;;;18.37;5.53;;;;;;;26.17;55.58;99349.52;1385126;84;21048;-71
2022/07/20 08:23:50;;;;;;;29.15;5.10;;;;;;;26.22;55.45;99353.06;1383721;82;21169;-72
2022/07/20 08:25:52;;;;;;;27.70;5.78;;;;;;;26.23;55.29;99344.47;1382028;84;81561;-72
2022/07/20 08:27:53;;;;;;;16.80;5.00;;;;;;;26.28;55.44;99344.79;1362083;85;21567;-70
2022/07/20 08:29:58;;;;;;;26.73;4.47;;;;;;;26.34;55.16;99339.57;1365762;85;82205;-71
2022/07/20 08:31:59;;;;;;;10.03;4.75;;;;;;;26.55;55.12;99344.16;1382933;82;21048;-72
2022/07/20 08:34:02;;;;;;;18.82;4.83;;;;;;;26.80;54.96;99346.38;1379133;84;81809;-72
2022/07/20 08:36:06;;;;;;;12.93;5.03;;;;;;;27.04;54.42;99340.61;1385303;82;21064;-71
2022/07/20 08:38:10;;;;;;;14.80;4.78;;;;;;;27.13;53.87;99345.00;1385362;82;22339;-73
2022/07/20 08:40:11;;;;;;;23.32;4.90;;;;;;;27.19;53.87;99343.80;1379870;84;81584;-71
2022/07/20 08:42:13;;;;;;;17.40;4.90;;;;;;;27.38;53.62;99342.27;1385753;84;21057;-72
2022/07/20 08:44:15;;;;;;;17.25;5.47;;;;;;;27.53;53.12;99341.88;1378984;84;81923;-71
2022/07/20 08:46:17;;;;;;;13.25;4.50;;;;;;;27.78;53.09;99337.19;1385333;84;21576;-71
2022/07/20 08:48:19;;;;;;;24.18;4.92;;;;;;;28.00;52.85;99332.04;1388722;83;21006;-73
2022/07/20 08:50:26;;;;;;;10.05;4.12;;;;;;;28.17;52.86;99337.67;1382406;84;80835;-72
2022/07/20 08:52:28;;;;;;;12.50;4.55;;;;;;;28.34;52.10;99341.62;1384312;84;21016;-72
2022/07/20 08:54:35;;;;;;;21.23;5.65;;;;;;;28.47;51.65;99332.92;1380626;84;82031;-75
2022/07/20 08:56:38;;;;;;;14.73;4.53;;;;;;;28.58;51.82;99343.33;1384356;84;21044;-72
2022/07/20 08:58:40;;;;;;;18.62;4.40;;;;;;;28.74;51.75;99342.37;1382101;84;21072;-72
2022/07/20 09:00:44;;;;;;;20.55;4.65;;;;;;;28.92;51.53;99343.91;1381600;84;81885;-73
2022/07/20 09:02:52;;;;;;;21.15;5.12;;;;;;;29.10;51.33;99343.05;1368214;83;21075;-71
2022/07/20 09:04:56;;;;;;;18.98;4.92;;;;;;;29.27;51.15;99341.05;1357831;85;81020;-71
2022/07/20 09:06:59;;;;;;;13.00;4.65;;;;;;;29.44;50.70;99342.23;1367147;85;21084;-71
2022/07/20 09:09:06;;;;;;;15.48;4.55;;;;;;;29.54;50.47;99345.49;1382571;84;81563;-72
2022/07/20 09:11:09;;;;;;;28.25;5.00;;;;;;;29.63;50.09;99339.43;1377431;85;21072;-72
2022/07/20 09:13:18;;;;;;;27.48;5.05;;;;;;;29.69;49.98;99343.59;1364488;85;21128;-72
2022/07/20 09:15:37;;;;;;;27.70;4.80;;;;;;;29.81;50.16;99337.67;1363815;85;81448;-72
2022/07/20 09:17:39;;;;;;;12.50;4.28;;;;;;;30.10;49.43;99342.75;1363112;83;80923;-72
2022/07/20 09:20:05;;;;;;;22.40;4.62;;;;;;;30.10;49.43;99342.75;1379343;84;21664;-71
2022/07/20 09:22:08;;;;;;;10.63;3.85;;;;;;;30.08;48.95;99337.51;1376879;84;81056;-73
2022/07/20 09:24:10;;;;;;;11.65;4.55;;;;;;;30.05;48.39;99331.10;1359791;85;21100;-73
2022/07/20 09:26:15;;;;;;;15.23;3.95;;;;;;;30.05;48.10;99329.74;1361947;85;80943;-72
2022/07/20 09:28:16;;;;;;;9.70;4.05;;;;;;;30.12;48.00;99329.30;1362018;85;21112;-72
2022/07/20 09:30:19;;;;;;;32.53;4.62;;;;;;;30.27;48.31;99325.17;1378699;84;21005;-71
2022/07/20 09:32:20;;;;;;;21.55;3.90;;;;;;;30.47;47.86;99330.82;1377823;83;81456;-71
2022/07/20 09:34:23;;;;;;;14.38;4.03;;;;;;;30.53;47.15;99322.39;1381595;84;36189;-72
2022/07/20 09:36:27;;;;;;;16.25;3.95;;;;;;;30.58;46.98;99327.27;1378844;84;21071;-72
2022/07/20 09:38:37;;;;;;;19.42;3.72;;;;;;;30.59;46.95;99326.20;1374992;84;81014;-73